Time,TemperatureF,DewpointF,PressureIn,WindDirection,WindDirectionDegrees,WindSpeedMPH,WindSpeedGustMPH,Humidity,HourlyPrecipIn,Conditions,Clouds,dailyrainin,SoftwareType,DateUTC
2013-02-07 00:08:00,23.5,14.9,30.09,SW,225,2.7,-999.0,69,-99.99,,,0.00,Acu-Link.com,2013-02-07 05:08:00,
2013-02-07 00:23:00,23.5,14.9,30.10,South,180,1.7,-999.0,69,-99.99,,,0.00,Acu-Link.com,2013-02-07 05:23:00,
2013-02-07 00:39:00,23.7,15.4,30.11,SSW,202,2.2,-999.0,70,-99.99,,,0.00,Acu-Link.com,2013-02-07 05:39:00,
2013-02-07 00:54:00,23.7,15.4,30.11,South,180,0.0,-999.0,70,-99.99,,,0.00,Acu-Link.com,2013-02-07 05:54:00,
2013-02-07 01:09:00,23.7,15.4,30.12,ESE,112,1.7,-999.0,70,-99.99,,,0.00,Acu-Link.com,2013-02-07 06:09:00,
2013-02-07 01:25:00,23.7,15.7,30.11,SE,135,0.0,-999.0,71,-99.99,,,0.00,Acu-Link.com,2013-02-07 06:25:00,
2013-02-07 01:40:00,23.7,15.7,30.11,SSE,157,1.7,-999.0,71,-99.99,,,0.00,Acu-Link.com,2013-02-07 06:40:00,
2013-02-07 01:56:00,23.7,15.7,30.11,ESE,112,0.0,-999.0,71,-99.99,,,0.00,Acu-Link.com,2013-02-07 06:56:00,
2013-02-07 02:11:00,23.7,16.0,30.11,East,90,1.1,-999.0,72,-99.99,,,0.00,Acu-Link.com,2013-02-07 07:11:00,
2013-02-07 02:26:00,23.9,16.2,30.11,ESE,112,1.1,-999.0,72,-99.99,,,0.00,Acu-Link.com,2013-02-07 07:26:00,
2013-02-07 02:41:00,23.9,16.2,30.10,ESE,112,0.0,-999.0,72,-99.99,,,0.00,Acu-Link.com,2013-02-07 07:41:00,
2013-02-07 02:57:00,23.9,15.9,30.11,South,180,1.1,-999.0,71,-99.99,,,0.00,Acu-Link.com,2013-02-07 07:57:00,
2013-02-07 03:12:00,23.9,15.9,30.10,East,90,2.2,-999.0,71,-99.99,,,0.00,Acu-Link.com,2013-02-07 08:12:00,
2013-02-07 03:27:00,23.9,16.2,30.10,ESE,112,2.2,-999.0,72,-99.99,,,0.00,Acu-Link.com,2013-02-07 08:27:00,
2013-02-07 03:43:00,23.9,16.2,30.09,ESE,112,2.2,-999.0,72,-99.99,,,0.00,Acu-Link.com,2013-02-07 08:43:00,
2013-02-07 03:58:00,23.9,16.2,30.09,SE,135,0.0,-999.0,72,-99.99,,,0.00,Acu-Link.com,2013-02-07 08:58:00,
2013-02-07 04:13:00,23.9,16.2,30.09,ESE,112,0.0,-999.0,72,-99.99,,,0.00,Acu-Link.com,2013-02-07 09:13:00,
2013-02-07 04:29:00,23.9,16.2,30.10,South,180,0.0,-999.0,72,-99.99,,,0.00,Acu-Link.com,2013-02-07 09:29:00,
2013-02-07 04:44:00,23.9,16.5,30.09,SSE,157,1.7,-999.0,73,-99.99,,,0.00,Acu-Link.com,2013-02-07 09:44:00,
2013-02-07 04:59:00,23.7,17.0,30.08,ESE,112,1.7,-999.0,75,-99.99,,,0.00,Acu-Link.com,2013-02-07 09:59:00,
2013-02-07 05:15:00,23.9,17.5,30.08,SE,135,1.1,-999.0,76,-99.99,,,0.00,Acu-Link.com,2013-02-07 10:15:00,
2013-02-07 05:30:00,24.3,18.1,30.07,South,180,2.7,-999.0,77,-99.99,,,0.00,Acu-Link.com,2013-02-07 10:30:00,
2013-02-07 05:46:00,24.4,18.2,30.07,ESE,112,1.7,-999.0,77,-99.99,,,0.00,Acu-Link.com,2013-02-07 10:46:00,
2013-02-07 06:01:00,24.6,18.4,30.06,South,180,4.2,-999.0,77,-99.99,,,0.00,Acu-Link.com,2013-02-07 11:01:00,
2013-02-07 06:16:00,24.8,18.9,30.06,South,180,2.7,-999.0,78,-99.99,,,0.00,Acu-Link.com,2013-02-07 11:16:00,
2013-02-07 06:31:00,24.8,18.9,30.05,ESE,112,1.7,-999.0,78,-99.99,,,0.00,Acu-Link.com,2013-02-07 11:31:00,
2013-02-07 06:47:00,25.2,19.3,30.05,SE,135,2.7,-999.0,78,-99.99,,,0.00,Acu-Link.com,2013-02-07 11:47:00,
2013-02-07 07:02:00,25.3,19.4,30.05,SE,135,2.2,-999.0,78,-99.99,,,0.00,Acu-Link.com,2013-02-07 12:02:00,
2013-02-07 07:17:00,25.5,19.6,30.06,SE,135,3.2,-999.0,78,-99.99,,,0.00,Acu-Link.com,2013-02-07 12:17:00,
2013-02-07 07:33:00,25.9,19.7,30.05,South,180,2.2,-999.0,77,-99.99,,,0.00,Acu-Link.com,2013-02-07 12:33:00,
2013-02-07 07:48:00,26.1,19.6,30.05,South,180,3.7,-999.0,76,-99.99,,,0.00,Acu-Link.com,2013-02-07 12:48:00,
2013-02-07 08:03:00,26.4,19.6,30.05,South,180,2.2,-999.0,75,-99.99,,,0.00,Acu-Link.com,2013-02-07 13:03:00,
2013-02-07 08:19:00,27.0,19.8,30.05,SSE,157,2.2,-999.0,74,-99.99,,,0.00,Acu-Link.com,2013-02-07 13:19:00,
2013-02-07 08:34:00,27.5,19.7,30.05,ESE,112,0.0,-999.0,72,-99.99,,,0.00,Acu-Link.com,2013-02-07 13:34:00,
2013-02-07 08:49:00,28.0,20.2,30.04,SE,135,1.7,-999.0,72,-99.99,,,0.00,Acu-Link.com,2013-02-07 13:49:00,
2013-02-07 09:05:00,28.6,20.4,30.04,ESE,112,3.2,-999.0,71,-99.99,,,0.00,Acu-Link.com,2013-02-07 14:05:00,
2013-02-07 09:20:00,29.3,20.8,30.03,SE,135,2.2,-999.0,70,-99.99,,,0.00,Acu-Link.com,2013-02-07 14:20:00,
2013-02-07 09:36:00,30.4,21.1,30.03,SE,135,0.0,-999.0,68,-99.99,,,0.00,Acu-Link.com,2013-02-07 14:36:00,
2013-02-07 09:51:00,31.3,21.3,30.02,ESE,112,2.7,-999.0,66,-99.99,,,0.00,Acu-Link.com,2013-02-07 14:51:00,
2013-02-07 10:06:00,32.0,21.2,30.02,ESE,112,2.2,-999.0,64,-99.99,,,0.00,Acu-Link.com,2013-02-07 15:06:00,
2013-02-07 10:21:00,33.4,22.2,30.00,ESE,112,2.7,-999.0,63,-99.99,,,0.00,Acu-Link.com,2013-02-07 15:21:00,
2013-02-07 10:37:00,34.0,22.0,30.00,ESE,112,3.2,-999.0,61,-99.99,,,0.00,Acu-Link.com,2013-02-07 15:37:00,
2013-02-07 10:52:00,32.5,21.7,30.01,ESE,112,4.2,-999.0,64,-99.99,,,0.00,Acu-Link.com,2013-02-07 15:52:00,
2013-02-07 11:07:00,33.4,22.6,30.00,ESE,112,3.2,-999.0,64,-99.99,,,0.00,Acu-Link.com,2013-02-07 16:07:00,
2013-02-07 11:23:00,35.1,22.6,30.01,ESE,112,2.7,-999.0,60,-99.99,,,0.00,Acu-Link.com,2013-02-07 16:23:00,
2013-02-07 11:38:00,35.4,22.5,29.99,East,90,3.2,-999.0,59,-99.99,,,0.00,Acu-Link.com,2013-02-07 16:38:00,
2013-02-07 11:53:00,33.6,22.4,29.99,ESE,112,0.0,-999.0,63,-99.99,,,0.00,Acu-Link.com,2013-02-07 16:53:00,
2013-02-07 12:09:00,33.6,22.4,30.00,ESE,112,2.7,-999.0,63,-99.99,,,0.01,Acu-Link.com,2013-02-07 17:09:00,
2013-02-07 12:24:00,34.3,22.7,29.98,NE,45,4.2,-999.0,62,-99.99,,,0.01,Acu-Link.com,2013-02-07 17:24:00,
2013-02-07 12:39:00,34.0,23.1,29.97,ESE,112,4.2,-999.0,64,-99.99,,,0.01,Acu-Link.com,2013-02-07 17:39:00,
2013-02-07 12:55:00,33.6,22.4,29.96,ESE,112,3.7,-999.0,63,-99.99,,,0.01,Acu-Link.com,2013-02-07 17:55:00,
2013-02-07 13:10:00,34.7,23.0,29.94,East,90,3.7,-999.0,62,-99.99,,,0.01,Acu-Link.com,2013-02-07 18:10:00,
2013-02-07 13:25:00,34.7,22.6,29.95,SE,135,3.7,-999.0,61,-99.99,,,0.01,Acu-Link.com,2013-02-07 18:25:00,
2013-02-07 13:41:00,34.0,22.7,29.93,ESE,112,4.7,-999.0,63,-99.99,,,0.01,Acu-Link.com,2013-02-07 18:41:00,
2013-02-07 13:56:00,34.5,22.8,29.93,SE,135,2.2,-999.0,62,-99.99,,,0.01,Acu-Link.com,2013-02-07 18:56:00,
2013-02-07 14:11:00,35.8,23.7,29.92,SSE,157,4.2,-999.0,61,-99.99,,,0.01,Acu-Link.com,2013-02-07 19:11:00,
2013-02-07 14:27:00,35.2,23.5,29.91,ESE,112,4.7,-999.0,62,-99.99,,,0.01,Acu-Link.com,2013-02-07 19:27:00,
2013-02-07 14:43:00,36.5,24.0,29.90,ESE,112,2.7,-999.0,60,-99.99,,,0.01,Acu-Link.com,2013-02-07 19:43:00,
2013-02-07 14:58:00,34.9,23.2,29.90,ESE,112,2.7,-999.0,62,-99.99,,,0.01,Acu-Link.com,2013-02-07 19:58:00,
2013-02-07 15:13:00,35.2,23.5,29.90,South,180,3.7,-999.0,62,-99.99,,,0.01,Acu-Link.com,2013-02-07 20:13:00,
2013-02-07 15:28:00,35.8,23.3,29.89,South,180,4.2,-999.0,60,-99.99,,,0.01,Acu-Link.com,2013-02-07 20:28:00,
2013-02-07 15:44:00,35.2,23.1,29.88,ESE,112,2.7,-999.0,61,-99.99,,,0.01,Acu-Link.com,2013-02-07 20:44:00,
2013-02-07 15:59:00,35.1,24.2,29.87,East,90,5.8,-999.0,64,-99.99,,,0.01,Acu-Link.com,2013-02-07 20:59:00,
2013-02-07 16:14:00,34.3,24.1,29.86,ESE,112,4.7,-999.0,66,-99.99,,,0.01,Acu-Link.com,2013-02-07 21:14:00,
2013-02-07 16:29:00,34.2,24.0,29.87,South,180,2.7,-999.0,66,-99.99,,,0.01,Acu-Link.com,2013-02-07 21:29:00,
2013-02-07 16:45:00,33.6,23.1,29.86,ESE,112,3.7,-999.0,65,-99.99,,,0.01,Acu-Link.com,2013-02-07 21:45:00,
2013-02-07 17:00:00,32.7,22.6,29.85,ESE,112,4.7,-999.0,66,-99.99,,,0.01,Acu-Link.com,2013-02-07 22:00:00,
2013-02-07 17:15:00,32.2,22.1,29.85,West,270,6.3,-999.0,66,-99.99,,,0.01,Acu-Link.com,2013-02-07 22:15:00,
2013-02-07 17:31:00,31.6,22.3,29.85,ESE,112,4.7,-999.0,68,-99.99,,,0.01,Acu-Link.com,2013-02-07 22:31:00,
2013-02-07 17:46:00,31.3,22.7,29.85,East,90,3.2,-999.0,70,-99.99,,,0.01,Acu-Link.com,2013-02-07 22:46:00,
2013-02-07 18:01:00,30.9,22.3,29.85,ESE,112,3.7,-999.0,70,-99.99,,,0.01,Acu-Link.com,2013-02-07 23:01:00,
2013-02-07 18:17:00,30.6,22.0,29.85,East,90,5.3,-999.0,70,-99.99,,,0.01,Acu-Link.com,2013-02-07 23:17:00,
2013-02-07 18:32:00,30.4,21.5,29.85,ENE,67,5.3,-999.0,69,-99.99,,,0.01,Acu-Link.com,2013-02-07 23:32:00,
2013-02-07 18:47:00,30.4,20.8,29.84,East,90,3.7,-999.0,67,-99.99,,,0.01,Acu-Link.com,2013-02-07 23:47:00,
2013-02-07 19:02:00,30.2,20.2,29.84,East,90,2.2,-999.0,66,-99.99,,,0.01,Acu-Link.com,2013-02-08 00:02:00,
2013-02-07 19:17:00,30.2,20.6,29.83,SE,135,4.7,-999.0,67,-99.99,,,0.01,Acu-Link.com,2013-02-08 00:17:00,
2013-02-07 19:33:00,30.2,19.9,29.83,East,90,3.7,-999.0,65,-99.99,,,0.01,Acu-Link.com,2013-02-08 00:33:00,
2013-02-07 19:48:00,30.2,20.2,29.81,East,90,4.2,-999.0,66,-99.99,,,0.01,Acu-Link.com,2013-02-08 00:48:00,
2013-02-07 20:03:00,30.0,20.4,29.81,East,90,4.7,-999.0,67,-99.99,,,0.01,Acu-Link.com,2013-02-08 01:03:00,
2013-02-07 20:19:00,29.8,20.5,29.79,East,90,2.7,-999.0,68,-99.99,,,0.01,Acu-Link.com,2013-02-08 01:19:00,
2013-02-07 20:34:00,29.8,19.9,29.80,East,90,3.7,-999.0,66,-99.99,,,0.01,Acu-Link.com,2013-02-08 01:34:00,
2013-02-07 20:49:00,29.8,19.1,29.80,ESE,112,4.2,-999.0,64,-99.99,,,0.01,Acu-Link.com,2013-02-08 01:49:00,
2013-02-07 21:05:00,29.8,18.8,29.79,ESE,112,4.7,-999.0,63,-99.99,,,0.01,Acu-Link.com,2013-02-08 02:05:00,
2013-02-07 21:20:00,29.8,19.1,29.78,ESE,112,3.7,-999.0,64,-99.99,,,0.01,Acu-Link.com,2013-02-08 02:20:00,
2013-02-07 21:35:00,29.7,19.0,29.76,East,90,4.2,-999.0,64,-99.99,,,0.01,Acu-Link.com,2013-02-08 02:35:00,
2013-02-07 21:51:00,29.5,18.8,29.76,ENE,67,3.7,-999.0,64,-99.99,,,0.01,Acu-Link.com,2013-02-08 02:51:00,
2013-02-07 22:06:00,29.5,19.2,29.75,ENE,67,5.8,-999.0,65,-99.99,,,0.01,Acu-Link.com,2013-02-08 03:06:00,
2013-02-07 22:21:00,29.3,19.4,29.74,NE,45,4.7,-999.0,66,-99.99,,,0.01,Acu-Link.com,2013-02-08 03:21:00,
2013-02-07 22:37:00,29.3,19.4,29.75,ENE,67,2.2,-999.0,66,-99.99,,,0.01,Acu-Link.com,2013-02-08 03:37:00,
2013-02-07 22:52:00,29.3,19.7,29.74,ENE,67,4.7,-999.0,67,-99.99,,,0.01,Acu-Link.com,2013-02-08 03:52:00,
2013-02-07 23:07:00,29.3,20.1,29.74,ENE,67,2.2,-999.0,68,-99.99,,,0.01,Acu-Link.com,2013-02-08 04:07:00,
2013-02-07 23:23:00,29.3,20.1,29.74,NE,45,3.2,-999.0,68,-99.99,,,0.01,Acu-Link.com,2013-02-08 04:23:00,
2013-02-07 23:38:00,29.3,20.4,29.74,ENE,67,3.7,-999.0,69,-99.99,,,0.01,Acu-Link.com,2013-02-08 04:38:00,
2013-02-07 23:53:00,29.3,20.4,29.73,NE,45,4.2,-999.0,69,-99.99,,,0.01,Acu-Link.com,2013-02-08 04:53:00,